Time;durP1;ratioP1;P1;durP2;ratioP2;P2;SDS_P1;SDS_P2;PMS_P1;PMS_P2;Temp;Humidity;BMP_temperature;BMP_pressure;BME280_temperature;BME280_humidity;BME280_pressure;Samples;Min_cycle;Max_cycle;Signal;HPM_P1;HPM_P2
2021/04/09 00:01:50;;;;;;;9.23;4.67;;;;;;;3.91;92.99;98447.63;5027052;28;20203;-70
2021/04/09 00:04:18;;;;;;;12.83;5.17;;;;;;;3.94;92.14;98436.78;5019655;28;20213;-70
2021/04/09 00:06:45;;;;;;;8.17;4.27;;;;;;;3.91;93.13;98446.81;5026407;28;20261;-69
2021/04/09 00:09:12;;;;;;;9.23;4.27;;;;;;;3.92;92.04;98451.94;5023286;28;20199;-70
2021/04/09 00:11:40;;;;;;;9.50;4.70;;;;;;;3.92;93.23;98438.72;5023908;28;20689;-69
2021/04/09 00:14:08;;;;;;;11.83;5.00;;;;;;;3.92;92.31;98457.22;5026119;28;20234;-69
2021/04/09 00:16:35;;;;;;;9.53;4.63;;;;;;;3.88;92.13;98445.31;5029316;28;20634;-70
2021/04/09 00:19:05;;;;;;;7.77;3.83;;;;;;;3.94;90.87;98434.16;5023117;28;20227;-70
2021/04/09 00:21:32;;;;;;;12.10;4.80;;;;;;;3.98;89.36;98432.88;5024195;28;20621;-70
2021/04/09 00:23:59;;;;;;;10.37;4.53;;;;;;;4.07;88.82;98428.50;5025390;28;20214;-69
2021/04/09 00:26:27;;;;;;;8.40;4.30;;;;;;;4.06;89.98;98427.66;5020799;28;20260;-70
2021/04/09 00:28:53;;;;;;;11.67;4.70;;;;;;;4.02;89.33;98434.22;5021192;28;20206;-69
2021/04/09 00:31:20;;;;;;;7.63;4.07;;;;;;;4.14;88.45;98429.56;5020247;28;20265;-70
2021/04/09 00:33:47;;;;;;;11.97;4.30;;;;;;;4.12;88.23;98434.16;5024815;28;20202;-70
2021/04/09 00:36:15;;;;;;;8.90;4.23;;;;;;;4.12;87.89;98431.53;5023479;28;20202;-70
2021/04/09 00:38:42;;;;;;;9.57;4.03;;;;;;;4.12;87.60;98423.59;5021828;28;20237;-69
2021/04/09 00:41:08;;;;;;;9.00;4.23;;;;;;;4.16;86.88;98423.13;5024619;28;20205;-69
2021/04/09 00:43:35;;;;;;;9.60;4.20;;;;;;;4.06;87.43;98421.56;5023584;28;20681;-69
2021/04/09 00:46:02;;;;;;;9.00;4.10;;;;;;;4.03;87.84;98421.84;5022732;28;20237;-69
2021/04/09 00:48:29;;;;;;;10.97;4.60;;;;;;;3.99;88.86;98423.13;5019453;28;20230;-69
2021/04/09 00:50:55;;;;;;;10.47;4.27;;;;;;;3.89;89.36;98425.84;5022177;28;20207;-69
2021/04/09 00:53:23;;;;;;;9.33;5.17;;;;;;;3.76;89.96;98422.72;5022804;28;20213;-69
2021/04/09 00:55:50;;;;;;;7.23;3.80;;;;;;;3.76;90.38;98414.81;5021733;28;20211;-69
2021/04/09 00:58:17;;;;;;;8.07;3.93;;;;;;;3.62;91.78;98417.97;5020632;28;20274;-69
2021/04/09 01:00:44;;;;;;;6.93;3.60;;;;;;;3.64;91.26;98415.16;5020432;28;20227;-69
2021/04/09 01:03:10;;;;;;;9.83;4.50;;;;;;;3.68;91.54;98412.09;5025691;28;20198;-69
2021/04/09 01:05:38;;;;;;;8.90;4.10;;;;;;;3.69;91.29;98405.00;5023557;28;20260;-70
2021/04/09 01:08:07;;;;;;;6.93;3.70;;;;;;;3.73;90.61;98398.44;5025702;28;20222;-69
2021/04/09 01:10:35;;;;;;;5.40;3.30;;;;;;;3.76;89.94;98401.59;5028988;28;20202;-69
2021/04/09 01:13:02;;;;;;;8.07;3.77;;;;;;;3.72;89.50;98400.25;5025654;28;20287;-69
2021/04/09 01:15:28;;;;;;;9.17;3.43;;;;;;;3.85;88.84;98398.09;5025640;28;20206;-69
2021/04/09 01:18:01;;;;;;;8.70;2.90;;;;;;;3.87;88.62;98404.03;5016693;28;20226;-70
2021/04/09 01:21:01;;;;;;;6.97;3.63;;;;;;;3.88;88.25;98394.31;5023387;28;20775;-69
2021/04/09 01:23:52;;;;;;;7.60;3.30;;;;;;;3.86;88.47;98389.19;4984813;28;20226;-69
2021/04/09 01:26:56;;;;;;;6.80;3.20;;;;;;;3.85;88.83;98389.31;5013468;28;20215;-69
2021/04/09 01:29:53;;;;;;;5.83;3.00;;;;;;;3.81;90.41;98385.34;5023624;28;20211;-69
2021/04/09 01:32:20;;;;;;;8.07;3.80;;;;;;;3.76;90.72;98390.25;5020791;28;20244;-70
2021/04/09 01:34:50;;;;;;;7.27;3.53;;;;;;;3.67;92.49;98378.75;5023429;28;20214;-69
2021/04/09 01:37:19;;;;;;;8.03;3.57;;;;;;;3.51;94.50;98386.47;5028695;28;20253;-70
2021/04/09 01:39:51;;;;;;;8.10;3.73;;;;;;;3.53;94.77;98388.97;5022104;28;20227;-70
2021/04/09 01:42:20;;;;;;;6.33;3.50;;;;;;;3.42;95.75;98384.75;5025517;28;20613;-70
2021/04/09 01:44:50;;;;;;;6.50;3.83;;;;;;;3.41;97.27;98384.91;5025981;28;20206;-70
2021/04/09 01:47:17;;;;;;;9.83;4.17;;;;;;;3.34;98.40;98379.38;5023983;28;20756;-70
2021/04/09 01:49:45;;;;;;;7.67;3.70;;;;;;;3.29;98.91;98378.13;5030643;28;20202;-70
2021/04/09 01:52:12;;;;;;;6.10;2.67;;;;;;;3.22;100.00;98371.81;5026946;28;20336;-70
2021/04/09 01:54:40;;;;;;;8.47;3.70;;;;;;;3.27;100.00;98374.84;5027132;28;20212;-70
2021/04/09 01:57:09;;;;;;;6.97;3.73;;;;;;;3.25;100.00;98371.53;5031600;28;20602;-70
2021/04/09 01:59:38;;;;;;;10.87;3.77;;;;;;;3.28;100.00;98368.56;5026344;28;20610;-70
2021/04/09 02:02:06;;;;;;;6.17;3.50;;;;;;;3.30;100.00;98364.00;5028138;28;20224;-70
2021/04/09 02:04:33;;;;;;;8.87;3.60;;;;;;;3.29;100.00;98363.16;5032312;28;20217;-70
2021/04/09 02:07:02;;;;;;;6.00;3.33;;;;;;;3.38;100.00;98362.28;5027933;28;20238;-70
2021/04/09 02:09:31;;;;;;;7.00;3.73;;;;;;;3.44;98.52;98356.41;5025284;28;20203;-70
2021/04/09 02:11:59;;;;;;;6.53;3.23;;;;;;;3.60;96.13;98356.56;5028767;28;20203;-70
2021/04/09 02:14:26;;;;;;;6.07;3.03;;;;;;;3.82;88.89;98356.13;5025661;28;20198;-70
2021/04/09 02:16:54;;;;;;;7.13;2.70;;;;;;;3.96;88.99;98355.63;5024466;28;20234;-70
2021/04/09 02:19:23;;;;;;;5.40;2.73;;;;;;;3.96;87.32;98354.81;5029355;28;20276;-70
2021/04/09 02:21:50;;;;;;;6.80;3.03;;;;;;;3.99;89.05;98344.75;5024225;28;20215;-70
2021/04/09 02:24:18;;;;;;;5.47;2.70;;;;;;;4.02;89.04;98346.28;5028040;28;20205;-70
2021/04/09 02:26:45;;;;;;;4.17;2.67;;;;;;;4.05;88.85;98344.16;5026033;28;20215;-70
2021/04/09 02:29:12;;;;;;;6.37;2.57;;;;;;;4.08;86.87;98338.56;5023505;28;20246;-70
2021/04/09 02:31:40;;;;;;;6.17;2.90;;;;;;;4.09;89.04;98336.75;5029366;28;20218;-70
2021/04/09 02:34:07;;;;;;;4.63;2.67;;;;;;;4.08;87.23;98341.22;5024737;28;20209;-70
2021/04/09 02:36:34;;;;;;;6.27;2.63;;;;;;;4.17;84.45;98342.91;5019618;28;20249;-70
2021/04/09 02:39:05;;;;;;;5.90;2.67;;;;;;;4.22;82.56;98335.38;5027125;28;20283;-69
2021/04/09 02:41:35;;;;;;;3.53;2.23;;;;;;;4.27;81.46;98340.22;5030262;28;20576;-70
2021/04/09 02:44:02;;;;;;;4.73;2.43;;;;;;;4.37;79.47;98341.75;5026480;28;20577;-70
2021/04/09 02:46:34;;;;;;;5.73;2.30;;;;;;;4.50;78.74;98333.41;5021098;28;20226;-70
2021/04/09 02:49:05;;;;;;;3.37;2.43;;;;;;;4.49;78.40;98331.78;5027185;28;20203;-70
2021/04/09 02:51:33;;;;;;;5.40;2.40;;;;;;;4.49;78.11;98329.97;5025687;28;20681;-70
2021/04/09 02:54:01;;;;;;;6.03;2.30;;;;;;;4.49;77.82;98324.69;5019142;28;20670;-70
2021/04/09 02:56:28;;;;;;;3.70;2.27;;;;;;;4.63;77.85;98325.91;5021304;28;20199;-70
2021/04/09 02:58:56;;;;;;;4.00;2.40;;;;;;;4.56;77.78;98320.41;5028236;28;20223;-70
2021/04/09 03:01:24;;;;;;;5.23;2.70;;;;;;;4.52;78.78;98316.44;5027938;28;20202;-70
2021/04/09 03:03:51;;;;;;;6.47;2.50;;;;;;;4.43;78.89;98314.72;5022788;28;20229;-70
2021/04/09 03:06:18;;;;;;;6.07;2.40;;;;;;;4.54;78.98;98317.13;5020327;28;20199;-70
2021/04/09 03:08:45;;;;;;;3.47;2.37;;;;;;;4.46;78.26;98314.41;5027619;28;20226;-70
2021/04/09 03:11:12;;;;;;;4.27;2.27;;;;;;;4.52;78.08;98312.97;5024068;28;20742;-70
2021/04/09 03:13:38;;;;;;;5.40;3.00;;;;;;;4.50;77.49;98315.75;5027901;28;20202;-70
2021/04/09 03:16:07;;;;;;;4.33;2.27;;;;;;;4.48;77.94;98317.72;5020548;28;20290;-70
2021/04/09 03:18:37;;;;;;;4.73;2.70;;;;;;;4.48;78.07;98316.91;5029812;28;20221;-71
2021/04/09 03:21:04;;;;;;;6.50;3.00;;;;;;;4.41;79.35;98311.41;5026916;28;20209;-70
2021/04/09 03:23:31;;;;;;;5.07;1.97;;;;;;;4.40;80.01;98301.81;5026792;28;20210;-71
2021/04/09 03:25:58;;;;;;;4.10;2.23;;;;;;;4.38;81.00;98306.44;5027215;28;20219;-70
2021/04/09 03:28:25;;;;;;;4.80;2.53;;;;;;;4.31;82.11;98300.09;5027547;28;20226;-70
2021/04/09 03:30:52;;;;;;;3.87;2.57;;;;;;;4.26;82.71;98297.09;5020197;28;20549;-70
2021/04/09 03:33:20;;;;;;;6.67;2.80;;;;;;;4.20;83.64;98296.88;5026892;28;20797;-70
2021/04/09 03:35:47;;;;;;;4.37;2.40;;;;;;;4.12;84.88;98291.56;5021060;28;20229;-70
2021/04/09 03:38:14;;;;;;;4.30;2.50;;;;;;;4.07;84.44;98294.63;5023077;28;20291;-70
2021/04/09 03:40:41;;;;;;;3.40;2.47;;;;;;;4.03;85.19;98290.66;5025915;28;20725;-70
2021/04/09 03:43:10;;;;;;;8.87;2.90;;;;;;;3.98;85.23;98290.31;5023566;28;20233;-70
2021/04/09 03:45:36;;;;;;;10.60;2.77;;;;;;;3.98;85.47;98289.47;5027634;28;20209;-70
2021/04/09 03:48:04;;;;;;;9.13;2.57;;;;;;;3.99;85.30;98284.03;5029407;28;20226;-70
2021/04/09 03:50:31;;;;;;;4.07;2.50;;;;;;;3.94;84.44;98294.22;5030300;28;20198;-70
2021/04/09 03:52:58;;;;;;;8.17;3.13;;;;;;;4.08;82.94;98292.84;5026205;28;20229;-70
2021/04/09 03:55:25;;;;;;;9.93;2.93;;;;;;;4.19;81.68;98288.16;5020684;28;20230;-70
2021/04/09 03:57:52;;;;;;;8.17;2.90;;;;;;;4.26;81.31;98285.72;5023429;28;20234;-70
2021/04/09 04:00:20;;;;;;;7.50;3.10;;;;;;;4.30;80.28;98297.63;5025401;28;20222;-70
2021/04/09 04:02:47;;;;;;;6.87;3.40;;;;;;;4.31;78.89;98301.94;5024299;28;20215;-69
2021/04/09 04:05:15;;;;;;;5.90;3.30;;;;;;;4.53;77.67;98296.13;5023325;28;20730;-70
2021/04/09 04:07:43;;;;;;;7.07;2.87;;;;;;;4.61;76.86;98290.88;5018483;28;20233;-70
2021/04/09 04:10:11;;;;;;;8.83;2.77;;;;;;;4.61;75.13;98294.34;5025890;28;20206;-70
2021/04/09 04:12:38;;;;;;;6.10;3.03;;;;;;;4.84;74.24;98305.22;5023831;28;20211;-70
2021/04/09 04:15:06;;;;;;;9.13;3.67;;;;;;;4.87;73.94;98302.25;5026948;28;20206;-70
2021/04/09 04:17:33;;;;;;;7.00;3.53;;;;;;;4.84;73.82;98307.84;5026100;28;20234;-70
2021/04/09 04:20:00;;;;;;;6.33;2.80;;;;;;;4.92;73.37;98298.16;5023681;28;20231;-70
2021/04/09 04:22:26;;;;;;;7.00;3.60;;;;;;;4.93;72.87;98306.91;5025827;28;20202;-70
2021/04/09 04:24:54;;;;;;;7.10;3.03;;;;;;;4.94;72.78;98308.56;5028861;28;20631;-71
2021/04/09 04:27:22;;;;;;;6.70;3.20;;;;;;;5.00;71.92;98303.47;5026198;28;20218;-70
2021/04/09 04:29:48;;;;;;;5.27;3.13;;;;;;;4.94;72.30;98303.28;5026160;28;20210;-70
2021/04/09 04:32:15;;;;;;;6.67;2.90;;;;;;;5.01;71.44;98309.59;5024107;28;20210;-70
2021/04/09 04:34:42;;;;;;;5.17;3.00;;;;;;;4.93;74.13;98298.97;5020313;28;20210;-70
2021/04/09 04:37:09;;;;;;;11.47;3.00;;;;;;;4.84;74.04;98302.56;5022619;28;20223;-70
2021/04/09 04:39:36;;;;;;;9.93;3.47;;;;;;;4.77;75.69;98296.28;5020989;28;20678;-70
2021/04/09 04:42:04;;;;;;;6.70;3.50;;;;;;;4.74;76.81;98291.28;5028107;28;20198;-71
2021/04/09 04:44:31;;;;;;;7.67;3.00;;;;;;;4.70;74.78;98297.88;5024591;28;20217;-71
2021/04/09 04:46:57;;;;;;;6.20;3.27;;;;;;;4.75;74.50;98295.56;5020505;28;20572;-70
2021/04/09 04:49:24;;;;;;;8.33;3.40;;;;;;;4.78;73.49;98295.28;5028962;28;20206;-70
2021/04/09 04:51:51;;;;;;;6.97;3.37;;;;;;;4.96;72.07;98299.50;5026555;28;20260;-70
2021/04/09 04:54:18;;;;;;;4.53;2.73;;;;;;;5.04;70.77;98294.25;5017701;28;20199;-70
2021/04/09 04:56:44;;;;;;;7.20;3.10;;;;;;;5.25;69.33;98297.28;5025054;28;20769;-70
2021/04/09 04:59:12;;;;;;;4.97;2.70;;;;;;;5.49;67.40;98297.34;5029505;28;20713;-70
2021/04/09 05:01:39;;;;;;;5.33;2.30;;;;;;;5.59;65.89;98307.78;5028878;28;20255;-71
2021/04/09 05:04:06;;;;;;;5.93;2.77;;;;;;;5.78;65.33;98310.16;5024997;28;20691;-70
2021/04/09 05:06:33;;;;;;;7.40;3.00;;;;;;;5.77;64.74;98311.13;5025170;28;20210;-70
2021/04/09 05:09:00;;;;;;;5.90;2.70;;;;;;;5.91;64.68;98315.81;5028589;28;20712;-71
2021/04/09 05:11:27;;;;;;;5.70;3.00;;;;;;;5.98;63.60;98309.69;5022630;28;20209;-70
2021/04/09 05:13:54;;;;;;;8.03;3.30;;;;;;;6.03;64.86;98314.47;5024519;28;20201;-71
2021/04/09 05:16:21;;;;;;;5.77;2.77;;;;;;;6.10;63.34;98316.31;5028358;28;20208;-71
2021/04/09 05:18:48;;;;;;;11.27;3.63;;;;;;;6.15;65.11;98315.84;5029837;28;20234;-71
2021/04/09 05:21:15;;;;;;;4.53;2.90;;;;;;;6.16;66.42;98312.19;5027541;28;20211;-71
2021/04/09 05:23:41;;;;;;;5.33;3.53;;;;;;;5.84;70.28;98297.09;5030204;28;20213;-71
2021/04/09 05:26:08;;;;;;;8.17;3.40;;;;;;;6.06;69.97;98291.16;5025510;28;20554;-70
2021/04/09 05:28:35;;;;;;;7.17;3.47;;;;;;;5.46;71.56;98288.91;5030694;28;20219;-76
2021/04/09 05:31:02;;;;;;;5.97;3.43;;;;;;;5.99;71.24;98290.16;5026517;28;20210;-74
2021/04/09 05:33:30;;;;;;;5.87;3.40;;;;;;;6.14;70.55;98295.63;5031025;28;20249;-77
2021/04/09 05:35:57;;;;;;;7.27;3.33;;;;;;;6.25;69.96;98290.81;5031574;28;20336;-70
2021/04/09 05:38:23;;;;;;;7.20;3.90;;;;;;;6.17;70.09;98296.13;5025002;28;20224;-70
2021/04/09 05:40:50;;;;;;;10.43;4.60;;;;;;;5.80;73.70;98292.31;5026194;28;20289;-74
2021/04/09 05:43:17;;;;;;;9.43;4.57;;;;;;;6.05;73.29;98284.19;5031154;28;20697;-73
2021/04/09 05:45:44;;;;;;;9.00;4.07;;;;;;;6.26;71.73;98281.88;5029728;28;20836;-72
2021/04/09 05:48:11;;;;;;;8.33;4.47;;;;;;;6.33;71.25;98280.22;5024254;28;20235;-72
2021/04/09 05:50:39;;;;;;;7.73;4.17;;;;;;;6.36;71.77;98279.03;5030563;28;20782;-72
2021/04/09 05:53:05;;;;;;;8.73;4.53;;;;;;;6.43;70.96;98282.66;5032350;28;20204;-72
2021/04/09 05:55:32;;;;;;;10.33;4.60;;;;;;;6.51;70.50;98280.00;5026506;28;20201;-72
2021/04/09 05:57:59;;;;;;;10.83;4.27;;;;;;;6.69;68.68;98291.22;5027484;28;20714;-70
2021/04/09 06:00:26;;;;;;;7.10;4.33;;;;;;;6.83;67.65;98285.22;5023632;28;20257;-69
2021/04/09 06:02:54;;;;;;;7.97;4.00;;;;;;;7.09;66.71;98283.13;5021783;28;20220;-71
2021/04/09 06:05:21;;;;;;;14.60;4.40;;;;;;;6.98;66.32;98284.34;5024079;28;20227;-71
2021/04/09 06:07:48;;;;;;;9.43;4.10;;;;;;;7.12;64.94;98283.63;5028167;28;20231;-70
2021/04/09 06:10:15;;;;;;;9.10;4.10;;;;;;;6.92;65.53;98284.19;5026906;28;20199;-71
2021/04/09 06:12:43;;;;;;;8.80;3.90;;;;;;;6.46;67.54;98283.19;5025410;28;20651;-74
2021/04/09 06:15:11;;;;;;;8.97;3.97;;;;;;;6.71;67.70;98278.63;5029519;28;20611;-72
2021/04/09 06:17:38;;;;;;;10.77;4.07;;;;;;;7.26;64.69;98274.91;5028934;28;20243;-73
2021/04/09 06:20:07;;;;;;;6.73;4.00;;;;;;;7.37;63.37;98277.19;5029996;28;20574;-73
2021/04/09 06:22:34;;;;;;;7.70;5.07;;;;;;;7.34;63.49;98277.56;5030561;28;20704;-74
2021/04/09 06:25:04;;;;;;;9.83;4.70;;;;;;;7.43;63.96;98281.81;5029156;28;20209;-71
2021/04/09 06:27:30;;;;;;;11.17;4.07;;;;;;;8.14;60.51;98284.97;5020884;28;20223;-73
2021/04/09 06:29:57;;;;;;;8.13;4.37;;;;;;;8.20;59.80;98281.63;5020884;28;20205;-72
2021/04/09 06:32:24;;;;;;;8.77;4.53;;;;;;;8.55;58.27;98290.78;5033268;28;20215;-73
2021/04/09 06:34:51;;;;;;;14.10;4.50;;;;;;;8.63;58.52;98288.03;5028220;28;20212;-73
2021/04/09 06:37:18;;;;;;;10.20;4.00;;;;;;;8.36;58.73;98288.63;5030590;28;20257;-74
2021/04/09 06:39:44;;;;;;;7.33;4.10;;;;;;;8.91;55.61;98292.56;5032145;28;20717;-69
2021/04/09 06:42:15;;;;;;;10.83;4.60;;;;;;;8.92;55.10;98293.34;5025136;28;20206;-70
2021/04/09 06:44:41;;;;;;;9.20;4.17;;;;;;;8.41;55.25;98289.75;5023367;28;20221;-70
2021/04/09 06:47:08;;;;;;;8.23;3.73;;;;;;;8.73;53.06;98294.72;5026881;28;20312;-70
2021/04/09 06:49:35;;;;;;;8.63;4.10;;;;;;;8.99;54.67;98281.78;5027419;28;20255;-70
2021/04/09 06:52:02;;;;;;;9.10;3.87;;;;;;;9.49;51.22;98294.34;5027097;28;20682;-70
2021/04/09 06:54:29;;;;;;;16.20;4.23;;;;;;;9.46;50.77;98294.69;5020668;28;20715;-70
2021/04/09 06:56:57;;;;;;;6.33;3.13;;;;;;;9.73;47.88;98305.47;5020882;28;20638;-70
2021/04/09 06:59:29;;;;;;;6.27;2.70;;;;;;;9.97;45.74;98307.78;5024493;28;20231;-72
2021/04/09 07:01:57;;;;;;;5.60;2.60;;;;;;;9.79;45.38;98314.56;5025842;28;20211;-71
2021/04/09 07:04:24;;;;;;;8.50;2.67;;;;;;;9.94;45.32;98302.81;5025450;28;20627;-71
2021/04/09 07:06:52;;;;;;;4.70;2.33;;;;;;;10.09;43.47;98308.16;5031647;28;20242;-71
2021/04/09 07:09:18;;;;;;;6.13;3.10;;;;;;;10.60;42.57;98299.75;5036818;28;20217;-71
2021/04/09 07:11:52;;;;;;;6.33;2.30;;;;;;;10.28;43.22;98296.81;5042053;28;20231;-71
2021/04/09 07:14:19;;;;;;;4.67;2.40;;;;;;;10.63;42.10;98303.88;5040324;28;20202;-72
2021/04/09 07:17:03;;;;;;;4.90;2.63;;;;;;;11.12;41.76;98299.28;5032189;28;20211;-71
2021/04/09 07:19:34;;;;;;;5.17;2.47;;;;;;;11.37;41.37;98301.25;5029840;28;20731;-71
2021/04/09 07:22:02;;;;;;;6.13;2.10;;;;;;;11.29;40.66;98301.44;5027258;28;20252;-71
2021/04/09 07:24:29;;;;;;;7.20;3.20;;;;;;;10.89;41.27;98304.06;5028212;28;20733;-71
2021/04/09 07:26:57;;;;;;;5.97;2.40;;;;;;;11.30;40.95;98294.22;5029123;28;20595;-71
2021/04/09 07:29:47;;;;;;;7.73;2.40;;;;;;;11.71;39.68;98288.88;5027948;28;20656;-70
2021/04/09 07:32:25;;;;;;;4.23;2.40;;;;;;;12.02;38.47;98296.16;5027730;28;20261;-70
2021/04/09 07:34:54;;;;;;;10.40;2.67;;;;;;;11.91;38.32;98292.44;5026555;28;20212;-71
2021/04/09 07:37:21;;;;;;;3.70;2.27;;;;;;;12.61;37.58;98290.84;5022868;28;20634;-70
2021/04/09 07:39:56;;;;;;;3.23;2.43;;;;;;;11.97;38.22;98287.13;5026754;28;20232;-71
2021/04/09 07:42:34;;;;;;;2.33;1.70;;;;;;;12.53;37.29;98288.41;5025748;28;20687;-74
2021/04/09 07:45:03;;;;;;;4.77;2.33;;;;;;;12.58;37.66;98283.25;5029325;28;20218;-70
2021/04/09 07:47:31;;;;;;;2.83;2.00;;;;;;;11.74;38.65;98281.28;5030838;28;20220;-75
2021/04/09 07:50:09;;;;;;;5.43;2.33;;;;;;;12.89;36.25;98286.91;5028098;28;20210;-75
2021/04/09 07:52:47;;;;;;;5.93;2.60;;;;;;;13.30;35.85;98285.81;5034226;28;20296;-73
2021/04/09 07:55:16;;;;;;;7.00;2.77;;;;;;;13.38;35.53;98290.97;5028039;28;20202;-73
2021/04/09 07:57:44;;;;;;;5.63;2.57;;;;;;;13.54;33.56;98298.53;5021676;28;20729;-81
2021/04/09 08:00:18;;;;;;;3.57;1.90;;;;;;;13.69;32.96;98299.91;5029103;28;20229;-80
2021/04/09 08:02:46;;;;;;;4.63;1.83;;;;;;;13.53;33.38;98292.31;5022897;28;20626;-81
2021/04/09 08:05:15;;;;;;;4.53;1.87;;;;;;;13.59;32.51;98304.91;5035730;28;20208;-82
2021/04/09 08:07:43;;;;;;;7.03;2.40;;;;;;;13.83;32.61;98298.00;5036024;28;20222;-83
2021/04/09 08:10:12;;;;;;;8.10;3.43;;;;;;;14.20;32.68;98302.53;5026889;28;20587;-83
2021/04/09 08:12:39;;;;;;;12.27;2.77;;;;;;;14.11;32.73;98293.91;5031187;28;20213;-83
2021/04/09 08:15:15;;;;;;;7.17;2.40;;;;;;;14.09;32.22;98298.63;5026347;28;20604;-83
2021/04/09 08:44:54;;;;;;;4.43;1.90;;;;;;;15.70;43.14;98234.72;4955613;28;20208;-79
2021/04/09 08:47:46;;;;;;;7.87;2.30;;;;;;;16.35;63.73;98171.75;5040886;28;20317;-86
2021/04/09 08:50:26;;;;;;;3.70;2.00;;;;;;;15.30;33.87;98255.84;5042665;28;20198;-86
2021/04/09 08:52:53;;;;;;;2.93;2.10;;;;;;;16.31;43.03;98217.19;5050429;28;20217;-87
2021/04/09 08:55:20;;;;;;;4.80;2.30;;;;;;;15.94;40.35;98242.63;5046910;28;20207;-87
2021/04/09 08:57:49;;;;;;;8.30;2.00;;;;;;;16.11;36.90;98219.38;5047651;28;20297;-86
2021/04/09 09:00:18;;;;;;;3.67;2.20;;;;;;;15.61;32.90;98250.31;5051910;28;20210;-87
2021/04/09 09:02:50;;;;;;;10.27;2.63;;;;;;;16.07;39.25;98217.38;5045069;28;20207;-87
2021/04/09 09:05:20;;;;;;;4.23;1.80;;;;;;;15.67;30.65;98253.97;5039806;28;20276;-86
2021/04/09 09:08:05;;;;;;;3.90;2.10;;;;;;;15.75;31.37;98259.88;5041724;28;20321;-87
2021/04/09 09:10:56;;;;;;;4.57;1.63;;;;;;;15.87;34.87;98249.16;5051850;28;20214;-88
2021/04/09 09:13:32;;;;;;;5.47;2.10;;;;;;;14.81;30.47;98260.53;5034658;28;20195;-86
2021/04/09 09:16:15;;;;;;;6.50;1.83;;;;;;;15.19;34.34;98235.09;5023807;28;20289;-84
2021/04/09 09:19:00;;;;;;;3.83;2.07;;;;;;;15.48;40.32;98215.53;5020847;28;20262;-85
2021/04/09 09:21:37;;;;;;;4.70;2.10;;;;;;;15.44;29.48;98257.38;5031339;28;20621;-82
2021/04/09 09:24:17;;;;;;;2.10;1.60;;;;;;;15.75;28.86;98265.25;5022896;28;20194;-82
2021/04/09 09:26:45;;;;;;;5.27;2.00;;;;;;;15.29;30.33;98253.41;5028305;28;20210;-76
2021/04/09 09:29:17;;;;;;;5.30;2.20;;;;;;;15.17;31.38;98247.94;5022381;28;20209;-77
2021/04/09 09:31:56;;;;;;;4.60;2.00;;;;;;;15.17;29.59;98258.69;5028112;28;20254;-78
2021/04/09 09:34:46;;;;;;;3.70;1.90;;;;;;;16.42;39.31;98211.03;5014082;28;20203;-71
2021/04/09 09:37:18;;;;;;;6.03;1.90;;;;;;;16.25;39.81;98214.59;5020458;28;20238;-76
2021/04/09 09:39:51;;;;;;;6.97;1.90;;;;;;;16.63;30.50;98218.56;5024179;28;20722;-72
2021/04/09 09:42:43;;;;;;;3.13;1.60;;;;;;;16.00;32.09;98247.09;5017689;28;20211;-72
2021/04/09 09:45:12;;;;;;;5.83;1.80;;;;;;;16.50;31.90;98248.41;5025945;28;20204;-72
2021/04/09 09:47:41;;;;;;;3.40;1.97;;;;;;;15.43;28.72;98268.34;5023546;28;20224;-73
2021/04/09 09:50:19;;;;;;;6.10;1.90;;;;;;;15.83;27.96;98258.72;5017290;28;20561;-73
2021/04/09 09:52:48;;;;;;;4.40;1.90;;;;;;;16.18;28.05;98246.22;5017746;28;20199;-73
2021/04/09 09:55:19;;;;;;;6.77;1.63;;;;;;;16.37;26.83;98262.06;5028951;28;20213;-72
2021/04/09 09:57:48;;;;;;;3.27;1.80;;;;;;;16.09;26.67;98259.19;5028573;28;20304;-72
2021/04/09 10:00:18;;;;;;;5.10;1.70;;;;;;;16.10;27.07;98254.59;5024997;28;20562;-76
2021/04/09 10:02:46;;;;;;;7.63;2.03;;;;;;;16.96;30.66;98224.16;5031072;28;20218;-73
2021/04/09 10:05:14;;;;;;;4.77;1.47;;;;;;;17.04;25.87;98248.09;5028519;28;20215;-73
2021/04/09 10:07:40;;;;;;;3.40;1.63;;;;;;;16.96;26.75;98250.31;5023651;28;20249;-73
2021/04/09 10:10:08;;;;;;;1.90;1.63;;;;;;;16.85;25.55;98251.97;5033450;28;20225;-73
2021/04/09 10:12:35;;;;;;;4.60;1.80;;;;;;;16.30;26.58;98238.97;5027103;28;20200;-73
2021/04/09 10:15:02;;;;;;;4.20;1.80;;;;;;;16.78;25.53;98245.03;5027857;28;20574;-73
2021/04/09 10:17:29;;;;;;;3.13;1.50;;;;;;;16.66;25.56;98244.22;5028281;28;20289;-73
2021/04/09 10:20:05;;;;;;;3.70;1.73;;;;;;;17.17;25.51;98238.94;5023235;28;20227;-73
2021/04/09 10:22:32;;;;;;;5.53;1.63;;;;;;;16.93;25.57;98235.41;5030434;28;20206;-73
2021/04/09 10:24:59;;;;;;;4.50;1.63;;;;;;;16.85;25.73;98227.69;5025214;28;20223;-73
2021/04/09 10:27:26;;;;;;;3.10;1.80;;;;;;;16.90;25.58;98227.81;5019407;28;20235;-73
2021/04/09 10:29:53;;;;;;;4.33;1.63;;;;;;;17.28;26.52;98221.91;5022383;28;20196;-77
2021/04/09 10:32:21;;;;;;;5.30;1.77;;;;;;;16.58;26.09;98223.00;5027217;28;20229;-77
2021/04/09 10:34:48;;;;;;;5.70;1.77;;;;;;;16.59;27.20;98205.78;5021815;28;20234;-75
2021/04/09 10:37:23;;;;;;;5.33;1.83;;;;;;;16.87;26.45;98214.00;5031555;28;20223;-76
2021/04/09 10:39:51;;;;;;;3.43;1.73;;;;;;;17.18;25.64;98217.09;5028006;28;20222;-77
2021/04/09 10:42:19;;;;;;;2.57;1.57;;;;;;;16.88;26.03;98219.13;5026310;28;20207;-79
2021/04/09 10:44:46;;;;;;;2.50;1.63;;;;;;;16.91;26.36;98218.66;5020932;28;20204;-71
2021/04/09 10:47:13;;;;;;;4.93;1.80;;;;;;;16.83;26.39;98221.72;5028790;28;20219;-72
2021/04/09 10:49:41;;;;;;;4.23;1.93;;;;;;;16.81;26.99;98206.84;5019159;28;20211;-73
2021/04/09 10:52:09;;;;;;;2.47;1.63;;;;;;;16.89;27.27;98204.63;5025323;28;20208;-71
2021/04/09 10:54:38;;;;;;;4.07;1.97;;;;;;;17.23;26.46;98205.63;5029324;28;20257;-70
2021/04/09 10:57:07;;;;;;;6.00;2.10;;;;;;;17.82;26.28;98199.78;5028747;28;20711;-76
2021/04/09 10:59:35;;;;;;;2.47;1.57;;;;;;;17.44;26.77;98192.34;5028388;28;20208;-76
2021/04/09 11:02:03;;;;;;;6.87;2.00;;;;;;;17.18;27.16;98186.63;5025600;28;20207;-72
2021/04/09 11:04:31;;;;;;;4.17;1.60;;;;;;;17.67;27.53;98184.13;5030139;28;20213;-72
2021/04/09 11:06:59;;;;;;;3.73;1.60;;;;;;;17.83;26.14;98187.94;5026479;28;20670;-70
2021/04/09 11:09:41;;;;;;;3.37;1.77;;;;;;;17.73;25.82;98190.47;5027297;28;20694;-75
2021/04/09 11:12:19;;;;;;;3.37;1.83;;;;;;;17.52;26.38;98175.75;5024042;28;20253;-76
2021/04/09 11:14:46;;;;;;;11.30;1.83;;;;;;;17.18;26.49;98178.53;5027219;28;20236;-76
2021/04/09 11:17:23;;;;;;;5.93;1.90;;;;;;;17.08;26.85;98172.94;5025129;28;20237;-76
2021/04/09 11:19:54;;;;;;;2.37;1.53;;;;;;;17.01;26.44;98170.34;5023473;28;20233;-76
2021/04/09 11:22:21;;;;;;;3.13;1.63;;;;;;;17.43;26.19;98162.91;5024924;28;20221;-75
2021/04/09 11:24:58;;;;;;;4.40;1.80;;;;;;;17.76;25.97;98160.25;5019805;28;20212;-74
2021/04/09 11:27:27;;;;;;;4.57;1.80;;;;;;;17.70;26.29;98164.78;5024434;28;20246;-74
2021/04/09 11:30:08;;;;;;;5.80;1.87;;;;;;;17.47;25.87;98151.38;5023072;28;20224;-76
2021/04/09 11:32:42;;;;;;;3.23;1.67;;;;;;;17.74;25.92;98152.41;5025853;28;20208;-76
2021/04/09 11:35:10;;;;;;;4.03;1.63;;;;;;;18.01;26.07;98148.03;5021297;28;20587;-76
2021/04/09 11:37:45;;;;;;;4.83;1.60;;;;;;;18.13;25.46;98148.78;5024467;28;20241;-75
2021/04/09 11:40:14;;;;;;;4.20;1.63;;;;;;;18.78;25.11;98132.75;5029141;28;20228;-75
2021/04/09 11:42:42;;;;;;;8.40;1.77;;;;;;;18.47;25.43;98136.09;5024876;28;20322;-76
2021/04/09 11:45:11;;;;;;;6.77;2.00;;;;;;;18.13;25.60;98146.06;5021809;28;20205;-76
2021/04/09 11:47:43;;;;;;;4.63;1.80;;;;;;;17.99;25.11;98143.94;5022259;28;20231;-76
2021/04/09 11:50:13;;;;;;;4.87;1.60;;;;;;;18.24;24.03;98134.34;5024546;28;20197;-76
2021/04/09 11:52:54;;;;;;;3.83;1.80;;;;;;;18.90;23.73;98136.19;5029075;28;20213;-75
2021/04/09 11:55:35;;;;;;;4.13;1.67;;;;;;;18.34;23.64;98131.03;5023032;28;20210;-74
2021/04/09 11:58:05;;;;;;;3.70;1.50;;;;;;;18.62;23.87;98133.63;5022772;28;20232;-76
2021/04/09 12:00:38;;;;;;;6.80;1.53;;;;;;;18.81;23.46;98129.56;5021363;28;20234;-76
2021/04/09 12:03:09;;;;;;;2.40;1.30;;;;;;;18.87;23.32;98131.25;5023803;28;20217;-75
2021/04/09 12:05:38;;;;;;;3.93;1.47;;;;;;;19.12;22.72;98134.28;5026426;28;20201;-74
2021/04/09 12:08:15;;;;;;;2.53;1.57;;;;;;;19.43;23.58;98123.63;5022479;28;20694;-78
2021/04/09 12:10:43;;;;;;;1.77;1.23;;;;;;;20.05;21.76;98124.75;5029201;28;20297;-76
2021/04/09 12:13:12;;;;;;;8.93;1.73;;;;;;;18.84;22.34;98135.28;5028474;28;20202;-74
2021/04/09 12:15:40;;;;;;;5.73;1.50;;;;;;;18.47;23.45;98118.00;5025345;28;20253;-74